sensor_id;sensor_type;location;lat;lon;timestamp;P1;durP1;ratioP1;P2;durP2;ratioP2
51800;SDS011;37855;53.204;6.568;2022-08-19T00:01:26;11.30;;;6.85;;
51800;SDS011;37855;53.204;6.568;2022-08-19T00:03:54;9.55;;;6.25;;
51800;SDS011;37855;53.204;6.568;2022-08-19T00:06:28;11.52;;;6.10;;
51800;SDS011;37855;53.204;6.568;2022-08-19T00:08:54;11.20;;;6.53;;
51800;SDS011;37855;53.204;6.568;2022-08-19T00:11:20;12.70;;;6.57;;
51800;SDS011;37855;53.204;6.568;2022-08-19T00:13:46;12.95;;;6.85;;
51800;SDS011;37855;53.204;6.568;2022-08-19T00:16:15;10.98;;;6.40;;
51800;SDS011;37855;53.204;6.568;2022-08-19T00:18:45;11.75;;;7.03;;
51800;SDS011;37855;53.204;6.568;2022-08-19T00:21:12;11.32;;;6.22;;
51800;SDS011;37855;53.204;6.568;2022-08-19T00:23:39;13.77;;;6.60;;
51800;SDS011;37855;53.204;6.568;2022-08-19T00:26:05;10.70;;;6.13;;
51800;SDS011;37855;53.204;6.568;2022-08-19T00:28:31;8.40;;;6.45;;
51800;SDS011;37855;53.204;6.568;2022-08-19T00:30:58;11.30;;;6.70;;
51800;SDS011;37855;53.204;6.568;2022-08-19T00:33:24;9.60;;;6.47;;
51800;SDS011;37855;53.204;6.568;2022-08-19T00:35:51;11.80;;;7.13;;
51800;SDS011;37855;53.204;6.568;2022-08-19T00:38:16;12.57;;;7.28;;
51800;SDS011;37855;53.204;6.568;2022-08-19T00:40:43;11.50;;;6.22;;
51800;SDS011;37855;53.204;6.568;2022-08-19T00:43:11;13.63;;;7.60;;
51800;SDS011;37855;53.204;6.568;2022-08-19T00:45:40;11.98;;;7.15;;
51800;SDS011;37855;53.204;6.568;2022-08-19T00:48:08;11.18;;;7.28;;
51800;SDS011;37855;53.204;6.568;2022-08-19T00:50:34;12.27;;;7.13;;
51800;SDS011;37855;53.204;6.568;2022-08-19T00:53:01;10.07;;;6.60;;
51800;SDS011;37855;53.204;6.568;2022-08-19T00:55:31;10.70;;;6.57;;
51800;SDS011;37855;53.204;6.568;2022-08-19T00:58:00;10.20;;;5.93;;
51800;SDS011;37855;53.204;6.568;2022-08-19T01:00:28;10.23;;;6.40;;
51800;SDS011;37855;53.204;6.568;2022-08-19T01:02:55;8.63;;;6.55;;
51800;SDS011;37855;53.204;6.568;2022-08-19T01:05:21;10.80;;;6.68;;
51800;SDS011;37855;53.204;6.568;2022-08-19T01:07:52;14.48;;;6.85;;
51800;SDS011;37855;53.204;6.568;2022-08-19T01:10:20;10.20;;;6.78;;
51800;SDS011;37855;53.204;6.568;2022-08-19T01:12:49;16.20;;;7.18;;
51800;SDS011;37855;53.204;6.568;2022-08-19T01:15:18;12.68;;;6.90;;
51800;SDS011;37855;53.204;6.568;2022-08-19T01:17:47;11.70;;;6.90;;
51800;SDS011;37855;53.204;6.568;2022-08-19T01:20:15;11.88;;;6.90;;
51800;SDS011;37855;53.204;6.568;2022-08-19T01:22:46;11.48;;;6.95;;
51800;SDS011;37855;53.204;6.568;2022-08-19T01:25:14;12.88;;;7.78;;
51800;SDS011;37855;53.204;6.568;2022-08-19T01:27:44;13.40;;;7.38;;
51800;SDS011;37855;53.204;6.568;2022-08-19T01:30:16;13.52;;;7.55;;
51800;SDS011;37855;53.204;6.568;2022-08-19T01:32:47;10.88;;;7.10;;
51800;SDS011;37855;53.204;6.568;2022-08-19T01:35:13;14.00;;;7.22;;
51800;SDS011;37855;53.204;6.568;2022-08-19T01:37:56;11.27;;;8.02;;
51800;SDS011;37855;53.204;6.568;2022-08-19T01:40:28;10.77;;;7.90;;
51800;SDS011;37855;53.204;6.568;2022-08-19T01:42:58;12.20;;;8.32;;
51800;SDS011;37855;53.204;6.568;2022-08-19T01:45:27;13.20;;;8.00;;
51800;SDS011;37855;53.204;6.568;2022-08-19T01:47:56;12.90;;;8.13;;
51800;SDS011;37855;53.204;6.568;2022-08-19T01:50:24;14.90;;;8.52;;
51800;SDS011;37855;53.204;6.568;2022-08-19T01:52:51;18.40;;;9.02;;
51800;SDS011;37855;53.204;6.568;2022-08-19T01:55:18;14.50;;;8.88;;
51800;SDS011;37855;53.204;6.568;2022-08-19T01:58:06;16.02;;;9.48;;
51800;SDS011;37855;53.204;6.568;2022-08-19T02:00:39;12.50;;;8.52;;
51800;SDS011;37855;53.204;6.568;2022-08-19T02:03:05;15.02;;;8.80;;
51800;SDS011;37855;53.204;6.568;2022-08-19T02:05:31;15.15;;;8.77;;
51800;SDS011;37855;53.204;6.568;2022-08-19T02:07:57;12.55;;;9.02;;
51800;SDS011;37855;53.204;6.568;2022-08-19T02:10:29;12.07;;;9.18;;
51800;SDS011;37855;53.204;6.568;2022-08-19T02:12:58;13.32;;;8.95;;
51800;SDS011;37855;53.204;6.568;2022-08-19T02:15:24;13.32;;;8.70;;
51800;SDS011;37855;53.204;6.568;2022-08-19T02:17:50;18.48;;;9.13;;
51800;SDS011;37855;53.204;6.568;2022-08-19T02:20:19;13.20;;;8.38;;
51800;SDS011;37855;53.204;6.568;2022-08-19T02:22:45;12.20;;;8.38;;
51800;SDS011;37855;53.204;6.568;2022-08-19T02:25:12;12.35;;;8.98;;
51800;SDS011;37855;53.204;6.568;2022-08-19T02:27:44;13.38;;;9.50;;
51800;SDS011;37855;53.204;6.568;2022-08-19T02:30:17;14.00;;;9.32;;
51800;SDS011;37855;53.204;6.568;2022-08-19T02:32:44;13.63;;;10.40;;
51800;SDS011;37855;53.204;6.568;2022-08-19T02:35:10;10.95;;;8.60;;
51800;SDS011;37855;53.204;6.568;2022-08-19T02:37:37;12.85;;;9.45;;
51800;SDS011;37855;53.204;6.568;2022-08-19T02:40:21;11.20;;;8.60;;
51800;SDS011;37855;53.204;6.568;2022-08-19T02:42:47;12.05;;;8.82;;
51800;SDS011;37855;53.204;6.568;2022-08-19T02:45:13;11.65;;;8.35;;
51800;SDS011;37855;53.204;6.568;2022-08-19T02:47:39;13.50;;;8.88;;
51800;SDS011;37855;53.204;6.568;2022-08-19T02:50:05;11.40;;;8.20;;
51800;SDS011;37855;53.204;6.568;2022-08-19T02:52:32;16.65;;;9.05;;
51800;SDS011;37855;53.204;6.568;2022-08-19T02:54:58;12.95;;;8.48;;
51800;SDS011;37855;53.204;6.568;2022-08-19T02:57:25;12.10;;;7.90;;
51800;SDS011;37855;53.204;6.568;2022-08-19T02:59:52;13.98;;;8.45;;
51800;SDS011;37855;53.204;6.568;2022-08-19T03:02:18;12.65;;;7.70;;
51800;SDS011;37855;53.204;6.568;2022-08-19T03:04:44;10.63;;;7.50;;
51800;SDS011;37855;53.204;6.568;2022-08-19T03:07:12;12.93;;;8.45;;
51800;SDS011;37855;53.204;6.568;2022-08-19T03:09:39;10.65;;;7.57;;
51800;SDS011;37855;53.204;6.568;2022-08-19T03:12:05;12.32;;;7.80;;
51800;SDS011;37855;53.204;6.568;2022-08-19T03:14:31;12.68;;;8.52;;
51800;SDS011;37855;53.204;6.568;2022-08-19T03:16:59;10.82;;;8.32;;
51800;SDS011;37855;53.204;6.568;2022-08-19T03:19:26;14.95;;;8.85;;
51800;SDS011;37855;53.204;6.568;2022-08-19T03:21:52;12.23;;;8.32;;
51800;SDS011;37855;53.204;6.568;2022-08-19T03:24:19;12.07;;;7.82;;
51800;SDS011;37855;53.204;6.568;2022-08-19T03:26:46;13.75;;;8.50;;
51800;SDS011;37855;53.204;6.568;2022-08-19T03:29:14;11.38;;;8.13;;
51800;SDS011;37855;53.204;6.568;2022-08-19T03:31:41;12.45;;;8.73;;
51800;SDS011;37855;53.204;6.568;2022-08-19T03:34:10;10.60;;;7.75;;
51800;SDS011;37855;53.204;6.568;2022-08-19T03:36:37;12.98;;;8.15;;
51800;SDS011;37855;53.204;6.568;2022-08-19T03:39:03;11.82;;;8.27;;
51800;SDS011;37855;53.204;6.568;2022-08-19T03:41:37;11.38;;;8.00;;
51800;SDS011;37855;53.204;6.568;2022-08-19T03:44:05;13.45;;;8.55;;
51800;SDS011;37855;53.204;6.568;2022-08-19T03:46:35;15.77;;;9.00;;
51800;SDS011;37855;53.204;6.568;2022-08-19T03:49:02;13.70;;;8.32;;
51800;SDS011;37855;53.204;6.568;2022-08-19T03:51:34;12.13;;;8.20;;
51800;SDS011;37855;53.204;6.568;2022-08-19T03:54:03;14.80;;;8.20;;
51800;SDS011;37855;53.204;6.568;2022-08-19T03:56:36;11.68;;;8.38;;
51800;SDS011;37855;53.204;6.568;2022-08-19T03:59:04;14.18;;;8.45;;
51800;SDS011;37855;53.204;6.568;2022-08-19T04:01:32;12.20;;;8.35;;
51800;SDS011;37855;53.204;6.568;2022-08-19T04:03:58;12.25;;;8.27;;
51800;SDS011;37855;53.204;6.568;2022-08-19T04:06:25;12.93;;;8.02;;
51800;SDS011;37855;53.204;6.568;2022-08-19T04:08:53;12.65;;;8.27;;
51800;SDS011;37855;53.204;6.568;2022-08-19T04:11:27;14.85;;;9.00;;
51800;SDS011;37855;53.204;6.568;2022-08-19T04:13:56;14.45;;;8.57;;
51800;SDS011;37855;53.204;6.568;2022-08-19T04:16:23;13.32;;;9.20;;
51800;SDS011;37855;53.204;6.568;2022-08-19T04:18:53;14.13;;;9.05;;
51800;SDS011;37855;53.204;6.568;2022-08-19T04:21:20;12.85;;;9.30;;
51800;SDS011;37855;53.204;6.568;2022-08-19T04:23:48;12.88;;;9.00;;
51800;SDS011;37855;53.204;6.568;2022-08-19T04:26:15;17.45;;;9.73;;
51800;SDS011;37855;53.204;6.568;2022-08-19T04:28:46;12.52;;;8.90;;
51800;SDS011;37855;53.204;6.568;2022-08-19T04:31:17;12.57;;;9.05;;
51800;SDS011;37855;53.204;6.568;2022-08-19T04:33:45;16.17;;;9.23;;
51800;SDS011;37855;53.204;6.568;2022-08-19T04:36:18;16.70;;;8.80;;
51800;SDS011;37855;53.204;6.568;2022-08-19T04:41:15;12.35;;;9.00;;
51800;SDS011;37855;53.204;6.568;2022-08-19T04:43:59;14.00;;;9.27;;
51800;SDS011;37855;53.204;6.568;2022-08-19T04:46:26;15.13;;;9.32;;
51800;SDS011;37855;53.204;6.568;2022-08-19T04:48:54;12.00;;;8.85;;
51800;SDS011;37855;53.204;6.568;2022-08-19T04:51:21;13.52;;;9.45;;
51800;SDS011;37855;53.204;6.568;2022-08-19T04:53:47;12.25;;;9.63;;
51800;SDS011;37855;53.204;6.568;2022-08-19T04:56:14;14.27;;;10.38;;
51800;SDS011;37855;53.204;6.568;2022-08-19T04:58:42;13.75;;;10.13;;
51800;SDS011;37855;53.204;6.568;2022-08-19T05:01:11;13.30;;;9.80;;
51800;SDS011;37855;53.204;6.568;2022-08-19T05:03:38;16.75;;;9.70;;
51800;SDS011;37855;53.204;6.568;2022-08-19T05:06:05;19.83;;;10.25;;
51800;SDS011;37855;53.204;6.568;2022-08-19T05:08:33;13.73;;;9.90;;
51800;SDS011;37855;53.204;6.568;2022-08-19T05:11:01;17.48;;;10.18;;
51800;SDS011;37855;53.204;6.568;2022-08-19T05:13:37;23.48;;;10.18;;
51800;SDS011;37855;53.204;6.568;2022-08-19T05:16:03;19.30;;;10.88;;
51800;SDS011;37855;53.204;6.568;2022-08-19T05:18:29;17.30;;;10.65;;
51800;SDS011;37855;53.204;6.568;2022-08-19T05:21:14;17.90;;;11.30;;
51800;SDS011;37855;53.204;6.568;2022-08-19T05:24:03;15.15;;;10.30;;
51800;SDS011;37855;53.204;6.568;2022-08-19T05:26:37;18.25;;;11.02;;
51800;SDS011;37855;53.204;6.568;2022-08-19T05:29:05;19.83;;;11.73;;
51800;SDS011;37855;53.204;6.568;2022-08-19T05:31:32;19.70;;;11.95;;
51800;SDS011;37855;53.204;6.568;2022-08-19T05:33:58;22.45;;;11.98;;
51800;SDS011;37855;53.204;6.568;2022-08-19T05:36:28;26.65;;;12.88;;
51800;SDS011;37855;53.204;6.568;2022-08-19T05:38:58;18.38;;;12.57;;
51800;SDS011;37855;53.204;6.568;2022-08-19T05:41:23;21.55;;;11.82;;
51800;SDS011;37855;53.204;6.568;2022-08-19T05:43:54;22.05;;;12.85;;
51800;SDS011;37855;53.204;6.568;2022-08-19T05:46:21;20.42;;;12.23;;
51800;SDS011;37855;53.204;6.568;2022-08-19T05:48:48;23.30;;;13.40;;
51800;SDS011;37855;53.204;6.568;2022-08-19T05:51:13;18.23;;;11.95;;
51800;SDS011;37855;53.204;6.568;2022-08-19T05:53:41;19.50;;;12.93;;
51800;SDS011;37855;53.204;6.568;2022-08-19T05:56:11;17.67;;;12.43;;
51800;SDS011;37855;53.204;6.568;2022-08-19T05:58:40;19.17;;;12.25;;
51800;SDS011;37855;53.204;6.568;2022-08-19T06:01:17;18.95;;;12.85;;
51800;SDS011;37855;53.204;6.568;2022-08-19T06:03:44;19.20;;;12.27;;
51800;SDS011;37855;53.204;6.568;2022-08-19T06:06:11;18.42;;;12.52;;
51800;SDS011;37855;53.204;6.568;2022-08-19T06:08:38;19.20;;;11.90;;
51800;SDS011;37855;53.204;6.568;2022-08-19T06:11:15;15.10;;;10.82;;
51800;SDS011;37855;53.204;6.568;2022-08-19T06:13:57;15.63;;;11.00;;
51800;SDS011;37855;53.204;6.568;2022-08-19T06:16:26;18.35;;;11.88;;
51800;SDS011;37855;53.204;6.568;2022-08-19T06:18:53;16.25;;;11.48;;
51800;SDS011;37855;53.204;6.568;2022-08-19T06:21:23;17.75;;;11.02;;
51800;SDS011;37855;53.204;6.568;2022-08-19T06:23:52;15.57;;;11.02;;
51800;SDS011;37855;53.204;6.568;2022-08-19T06:26:18;18.38;;;11.40;;
51800;SDS011;37855;53.204;6.568;2022-08-19T06:28:45;17.08;;;10.63;;
51800;SDS011;37855;53.204;6.568;2022-08-19T06:31:24;14.95;;;9.75;;
51800;SDS011;37855;53.204;6.568;2022-08-19T06:33:51;15.88;;;9.65;;
51800;SDS011;37855;53.204;6.568;2022-08-19T06:36:18;14.40;;;9.52;;
51800;SDS011;37855;53.204;6.568;2022-08-19T06:38:56;15.73;;;9.50;;
51800;SDS011;37855;53.204;6.568;2022-08-19T06:41:23;15.45;;;9.00;;
51800;SDS011;37855;53.204;6.568;2022-08-19T06:43:51;16.30;;;9.38;;
51800;SDS011;37855;53.204;6.568;2022-08-19T06:46:19;17.17;;;9.57;;
51800;SDS011;37855;53.204;6.568;2022-08-19T06:48:46;14.63;;;9.82;;
51800;SDS011;37855;53.204;6.568;2022-08-19T06:51:14;13.05;;;8.55;;
51800;SDS011;37855;53.204;6.568;2022-08-19T06:53:43;24.98;;;9.35;;
51800;SDS011;37855;53.204;6.568;2022-08-19T06:56:12;14.63;;;9.10;;
51800;SDS011;37855;53.204;6.568;2022-08-19T06:58:39;15.20;;;9.38;;
51800;SDS011;37855;53.204;6.568;2022-08-19T07:01:05;13.50;;;8.85;;
51800;SDS011;37855;53.204;6.568;2022-08-19T07:03:32;14.48;;;8.38;;
51800;SDS011;37855;53.204;6.568;2022-08-19T07:06:06;15.40;;;8.88;;
51800;SDS011;37855;53.204;6.568;2022-08-19T07:08:35;12.20;;;7.90;;
51800;SDS011;37855;53.204;6.568;2022-08-19T07:11:02;14.60;;;8.15;;
51800;SDS011;37855;53.204;6.568;2022-08-19T07:13:32;17.08;;;7.85;;
51800;SDS011;37855;53.204;6.568;2022-08-19T07:16:07;18.02;;;8.70;;
51800;SDS011;37855;53.204;6.568;2022-08-19T07:18:35;18.77;;;9.02;;
51800;SDS011;37855;53.204;6.568;2022-08-19T07:21:02;14.02;;;8.75;;
51800;SDS011;37855;53.204;6.568;2022-08-19T07:23:32;17.33;;;8.73;;
51800;SDS011;37855;53.204;6.568;2022-08-19T07:25:58;18.13;;;9.15;;
51800;SDS011;37855;53.204;6.568;2022-08-19T07:28:29;16.67;;;8.98;;
51800;SDS011;37855;53.204;6.568;2022-08-19T07:30:55;16.73;;;8.82;;
51800;SDS011;37855;53.204;6.568;2022-08-19T07:33:21;15.73;;;9.52;;
51800;SDS011;37855;53.204;6.568;2022-08-19T07:35:46;15.43;;;9.20;;
51800;SDS011;37855;53.204;6.568;2022-08-19T07:38:13;15.65;;;8.88;;
51800;SDS011;37855;53.204;6.568;2022-08-19T07:40:39;15.45;;;9.40;;
51800;SDS011;37855;53.204;6.568;2022-08-19T07:43:06;14.25;;;9.98;;
51800;SDS011;37855;53.204;6.568;2022-08-19T07:45:35;22.67;;;9.80;;
51800;SDS011;37855;53.204;6.568;2022-08-19T07:48:01;16.58;;;8.77;;
51800;SDS011;37855;53.204;6.568;2022-08-19T07:50:28;14.32;;;9.00;;
51800;SDS011;37855;53.204;6.568;2022-08-19T07:52:57;19.33;;;7.85;;
51800;SDS011;37855;53.204;6.568;2022-08-19T07:58:19;18.58;;;8.07;;
51800;SDS011;37855;53.204;6.568;2022-08-19T08:00:47;14.43;;;7.65;;
51800;SDS011;37855;53.204;6.568;2022-08-19T08:03:15;13.45;;;7.57;;
51800;SDS011;37855;53.204;6.568;2022-08-19T08:05:42;13.05;;;8.23;;
51800;SDS011;37855;53.204;6.568;2022-08-19T08:08:27;15.40;;;6.97;;
51800;SDS011;37855;53.204;6.568;2022-08-19T08:11:12;14.45;;;5.88;;
51800;SDS011;37855;53.204;6.568;2022-08-19T08:13:39;21.30;;;6.43;;
51800;SDS011;37855;53.204;6.568;2022-08-19T08:16:06;11.35;;;6.82;;
51800;SDS011;37855;53.204;6.568;2022-08-19T08:18:32;12.52;;;6.15;;
51800;SDS011;37855;53.204;6.568;2022-08-19T08:20:59;10.85;;;6.32;;
51800;SDS011;37855;53.204;6.568;2022-08-19T08:23:25;11.38;;;5.13;;
51800;SDS011;37855;53.204;6.568;2022-08-19T08:25:51;11.77;;;6.35;;
51800;SDS011;37855;53.204;6.568;2022-08-19T08:28:20;10.57;;;6.60;;
51800;SDS011;37855;53.204;6.568;2022-08-19T08:30:47;13.38;;;6.40;;
51800;SDS011;37855;53.204;6.568;2022-08-19T08:33:16;11.70;;;7.15;;
51800;SDS011;37855;53.204;6.568;2022-08-19T08:35:47;11.10;;;6.03;;
51800;SDS011;37855;53.204;6.568;2022-08-19T08:38:13;12.63;;;5.95;;
51800;SDS011;37855;53.204;6.568;2022-08-19T08:43:26;12.55;;;6.60;;
51800;SDS011;37855;53.204;6.568;2022-08-19T08:51:15;15.57;;;9.30;;
51800;SDS011;37855;53.204;6.568;2022-08-19T08:53:46;14.60;;;9.15;;
51800;SDS011;37855;53.204;6.568;2022-08-19T08:56:14;11.85;;;9.35;;
51800;SDS011;37855;53.204;6.568;2022-08-19T08:58:46;15.25;;;8.88;;
51800;SDS011;37855;53.204;6.568;2022-08-19T09:01:17;13.40;;;9.90;;
51800;SDS011;37855;53.204;6.568;2022-08-19T09:03:44;13.48;;;9.35;;
51800;SDS011;37855;53.204;6.568;2022-08-19T09:08:45;12.85;;;7.93;;
51800;SDS011;37855;53.204;6.568;2022-08-19T09:11:25;17.15;;;9.02;;
51800;SDS011;37855;53.204;6.568;2022-08-19T09:17:01;15.32;;;8.38;;
51800;SDS011;37855;53.204;6.568;2022-08-19T09:19:28;19.13;;;8.35;;
51800;SDS011;37855;53.204;6.568;2022-08-19T09:21:56;14.77;;;8.13;;
51800;SDS011;37855;53.204;6.568;2022-08-19T09:24:22;10.07;;;6.50;;
51800;SDS011;37855;53.204;6.568;2022-08-19T09:26:47;20.63;;;8.50;;
51800;SDS011;37855;53.204;6.568;2022-08-19T09:29:13;14.50;;;7.10;;
51800;SDS011;37855;53.204;6.568;2022-08-19T09:31:38;14.98;;;8.02;;
51800;SDS011;37855;53.204;6.568;2022-08-19T09:34:07;17.67;;;7.90;;
51800;SDS011;37855;53.204;6.568;2022-08-19T09:36:45;10.43;;;5.75;;
51800;SDS011;37855;53.204;6.568;2022-08-19T09:39:21;9.70;;;6.22;;
51800;SDS011;37855;53.204;6.568;2022-08-19T09:42:03;16.10;;;6.15;;
51800;SDS011;37855;53.204;6.568;2022-08-19T09:44:29;17.60;;;9.20;;
51800;SDS011;37855;53.204;6.568;2022-08-19T09:46:55;13.50;;;8.63;;
51800;SDS011;37855;53.204;6.568;2022-08-19T09:49:21;13.10;;;9.90;;
51800;SDS011;37855;53.204;6.568;2022-08-19T09:51:50;15.95;;;6.22;;
51800;SDS011;37855;53.204;6.568;2022-08-19T09:54:17;11.57;;;7.05;;
51800;SDS011;37855;53.204;6.568;2022-08-19T09:56:43;29.90;;;8.40;;
51800;SDS011;37855;53.204;6.568;2022-08-19T09:59:12;15.05;;;9.25;;
51800;SDS011;37855;53.204;6.568;2022-08-19T10:01:38;12.75;;;7.95;;
51800;SDS011;37855;53.204;6.568;2022-08-19T10:04:04;13.73;;;6.95;;
51800;SDS011;37855;53.204;6.568;2022-08-19T10:06:33;15.57;;;6.40;;
51800;SDS011;37855;53.204;6.568;2022-08-19T10:09:00;13.02;;;8.07;;
51800;SDS011;37855;53.204;6.568;2022-08-19T10:11:29;12.32;;;7.13;;
51800;SDS011;37855;53.204;6.568;2022-08-19T10:13:55;11.90;;;9.98;;
51800;SDS011;37855;53.204;6.568;2022-08-19T10:16:22;14.27;;;7.72;;
51800;SDS011;37855;53.204;6.568;2022-08-19T10:18:49;11.40;;;6.82;;
51800;SDS011;37855;53.204;6.568;2022-08-19T10:21:19;16.33;;;8.55;;
51800;SDS011;37855;53.204;6.568;2022-08-19T10:23:48;21.65;;;9.95;;
51800;SDS011;37855;53.204;6.568;2022-08-19T10:26:20;23.42;;;9.18;;
51800;SDS011;37855;53.204;6.568;2022-08-19T10:28:48;22.52;;;10.18;;
51800;SDS011;37855;53.204;6.568;2022-08-19T10:31:15;13.35;;;7.88;;
51800;SDS011;37855;53.204;6.568;2022-08-19T10:33:44;15.88;;;9.80;;
51800;SDS011;37855;53.204;6.568;2022-08-19T10:36:14;15.70;;;10.68;;
51800;SDS011;37855;53.204;6.568;2022-08-19T10:38:44;13.65;;;8.88;;
51800;SDS011;37855;53.204;6.568;2022-08-19T10:41:15;11.45;;;9.60;;
51800;SDS011;37855;53.204;6.568;2022-08-19T10:43:42;11.25;;;9.32;;
51800;SDS011;37855;53.204;6.568;2022-08-19T10:46:11;14.35;;;9.45;;
51800;SDS011;37855;53.204;6.568;2022-08-19T10:48:39;13.38;;;10.52;;
51800;SDS011;37855;53.204;6.568;2022-08-19T10:51:05;13.65;;;10.48;;
51800;SDS011;37855;53.204;6.568;2022-08-19T10:53:50;14.20;;;12.02;;
51800;SDS011;37855;53.204;6.568;2022-08-19T10:56:16;12.77;;;10.30;;
51800;SDS011;37855;53.204;6.568;2022-08-19T10:59:02;11.55;;;9.50;;
51800;SDS011;37855;53.204;6.568;2022-08-19T11:01:30;14.60;;;7.80;;
51800;SDS011;37855;53.204;6.568;2022-08-19T11:04:02;16.25;;;9.90;;
51800;SDS011;37855;53.204;6.568;2022-08-19T11:06:35;11.70;;;8.52;;
51800;SDS011;37855;53.204;6.568;2022-08-19T11:09:01;16.77;;;10.63;;
51800;SDS011;37855;53.204;6.568;2022-08-19T11:11:27;13.55;;;9.43;;
51800;SDS011;37855;53.204;6.568;2022-08-19T11:13:53;24.77;;;10.27;;
51800;SDS011;37855;53.204;6.568;2022-08-19T11:16:21;17.00;;;11.52;;
51800;SDS011;37855;53.204;6.568;2022-08-19T11:18:50;11.60;;;7.80;;
51800;SDS011;37855;53.204;6.568;2022-08-19T11:21:20;13.85;;;8.77;;
51800;SDS011;37855;53.204;6.568;2022-08-19T11:23:54;13.18;;;8.88;;
51800;SDS011;37855;53.204;6.568;2022-08-19T11:26:22;10.07;;;7.53;;
51800;SDS011;37855;53.204;6.568;2022-08-19T11:28:49;13.10;;;10.65;;
51800;SDS011;37855;53.204;6.568;2022-08-19T11:31:19;18.15;;;10.90;;
51800;SDS011;37855;53.204;6.568;2022-08-19T11:33:46;15.60;;;9.80;;
51800;SDS011;37855;53.204;6.568;2022-08-19T11:36:15;17.52;;;9.13;;
51800;SDS011;37855;53.204;6.568;2022-08-19T11:38:41;15.32;;;9.63;;
51800;SDS011;37855;53.204;6.568;2022-08-19T11:41:07;24.55;;;10.40;;
51800;SDS011;37855;53.204;6.568;2022-08-19T11:43:33;13.18;;;8.43;;
51800;SDS011;37855;53.204;6.568;2022-08-19T11:45:59;11.57;;;9.43;;
51800;SDS011;37855;53.204;6.568;2022-08-19T11:48:35;13.52;;;10.68;;
51800;SDS011;37855;53.204;6.568;2022-08-19T11:51:06;11.23;;;9.18;;
51800;SDS011;37855;53.204;6.568;2022-08-19T11:53:35;13.15;;;10.43;;
51800;SDS011;37855;53.204;6.568;2022-08-19T11:56:03;12.85;;;9.75;;
51800;SDS011;37855;53.204;6.568;2022-08-19T11:58:30;14.50;;;10.23;;
51800;SDS011;37855;53.204;6.568;2022-08-19T12:00:59;14.07;;;10.05;;
51800;SDS011;37855;53.204;6.568;2022-08-19T12:03:24;10.68;;;8.57;;
51800;SDS011;37855;53.204;6.568;2022-08-19T12:05:51;16.48;;;10.40;;
51800;SDS011;37855;53.204;6.568;2022-08-19T12:08:17;12.27;;;9.63;;
51800;SDS011;37855;53.204;6.568;2022-08-19T12:10:43;13.30;;;8.90;;
51800;SDS011;37855;53.204;6.568;2022-08-19T12:13:10;12.75;;;8.07;;
51800;SDS011;37855;53.204;6.568;2022-08-19T12:15:39;12.15;;;8.88;;
51800;SDS011;37855;53.204;6.568;2022-08-19T12:18:06;15.60;;;8.32;;
51800;SDS011;37855;53.204;6.568;2022-08-19T12:20:37;12.85;;;9.07;;
51800;SDS011;37855;53.204;6.568;2022-08-19T12:23:04;13.05;;;7.75;;
51800;SDS011;37855;53.204;6.568;2022-08-19T12:25:31;17.23;;;10.15;;
51800;SDS011;37855;53.204;6.568;2022-08-19T12:27:59;13.13;;;9.40;;
51800;SDS011;37855;53.204;6.568;2022-08-19T12:30:25;14.80;;;10.68;;
51800;SDS011;37855;53.204;6.568;2022-08-19T12:32:51;16.50;;;9.45;;
51800;SDS011;37855;53.204;6.568;2022-08-19T12:35:17;12.18;;;8.75;;
51800;SDS011;37855;53.204;6.568;2022-08-19T12:37:45;14.63;;;10.27;;
51800;SDS011;37855;53.204;6.568;2022-08-19T12:40:12;10.10;;;8.88;;
51800;SDS011;37855;53.204;6.568;2022-08-19T12:42:39;17.20;;;8.15;;
51800;SDS011;37855;53.204;6.568;2022-08-19T12:45:11;11.43;;;7.63;;
51800;SDS011;37855;53.204;6.568;2022-08-19T12:47:38;16.10;;;8.38;;
51800;SDS011;37855;53.204;6.568;2022-08-19T12:50:05;14.10;;;8.05;;
51800;SDS011;37855;53.204;6.568;2022-08-19T12:52:34;13.65;;;9.57;;
51800;SDS011;37855;53.204;6.568;2022-08-19T12:55:02;14.95;;;8.90;;
51800;SDS011;37855;53.204;6.568;2022-08-19T12:57:29;13.10;;;8.45;;
51800;SDS011;37855;53.204;6.568;2022-08-19T12:59:58;13.48;;;7.85;;
51800;SDS011;37855;53.204;6.568;2022-08-19T13:02:24;13.00;;;8.05;;
51800;SDS011;37855;53.204;6.568;2022-08-19T13:04:51;13.00;;;7.28;;
51800;SDS011;37855;53.204;6.568;2022-08-19T13:07:16;11.65;;;7.75;;
51800;SDS011;37855;53.204;6.568;2022-08-19T13:09:42;14.77;;;8.73;;
51800;SDS011;37855;53.204;6.568;2022-08-19T13:12:08;16.20;;;9.45;;
51800;SDS011;37855;53.204;6.568;2022-08-19T13:14:37;13.45;;;8.82;;
51800;SDS011;37855;53.204;6.568;2022-08-19T13:17:05;13.20;;;9.13;;
51800;SDS011;37855;53.204;6.568;2022-08-19T13:19:31;13.13;;;8.82;;
51800;SDS011;37855;53.204;6.568;2022-08-19T13:21:57;13.32;;;9.48;;
51800;SDS011;37855;53.204;6.568;2022-08-19T13:24:23;12.38;;;9.85;;
51800;SDS011;37855;53.204;6.568;2022-08-19T13:26:49;18.52;;;11.00;;
51800;SDS011;37855;53.204;6.568;2022-08-19T13:29:15;15.45;;;9.63;;
51800;SDS011;37855;53.204;6.568;2022-08-19T13:31:59;18.92;;;11.40;;
51800;SDS011;37855;53.204;6.568;2022-08-19T13:34:43;18.95;;;11.35;;
51800;SDS011;37855;53.204;6.568;2022-08-19T13:37:11;16.88;;;12.07;;
51800;SDS011;37855;53.204;6.568;2022-08-19T13:39:37;17.00;;;11.23;;
51800;SDS011;37855;53.204;6.568;2022-08-19T13:42:02;13.38;;;9.38;;
51800;SDS011;37855;53.204;6.568;2022-08-19T13:44:29;12.75;;;8.75;;
51800;SDS011;37855;53.204;6.568;2022-08-19T13:46:59;11.38;;;7.53;;
51800;SDS011;37855;53.204;6.568;2022-08-19T13:49:30;11.15;;;7.13;;
51800;SDS011;37855;53.204;6.568;2022-08-19T13:51:56;10.30;;;7.57;;
51800;SDS011;37855;53.204;6.568;2022-08-19T13:54:22;12.82;;;7.80;;
51800;SDS011;37855;53.204;6.568;2022-08-19T13:56:48;9.70;;;6.97;;
51800;SDS011;37855;53.204;6.568;2022-08-19T13:59:14;10.20;;;6.47;;
51800;SDS011;37855;53.204;6.568;2022-08-19T14:01:40;11.82;;;8.23;;
51800;SDS011;37855;53.204;6.568;2022-08-19T14:04:10;13.52;;;7.80;;
51800;SDS011;37855;53.204;6.568;2022-08-19T14:06:36;11.27;;;7.43;;
51800;SDS011;37855;53.204;6.568;2022-08-19T14:09:02;11.40;;;7.50;;
51800;SDS011;37855;53.204;6.568;2022-08-19T14:11:29;9.10;;;6.28;;
51800;SDS011;37855;53.204;6.568;2022-08-19T14:13:54;11.45;;;7.50;;
51800;SDS011;37855;53.204;6.568;2022-08-19T14:16:20;17.52;;;9.57;;
51800;SDS011;37855;53.204;6.568;2022-08-19T14:18:46;14.30;;;8.68;;
51800;SDS011;37855;53.204;6.568;2022-08-19T14:21:16;12.63;;;8.98;;
51800;SDS011;37855;53.204;6.568;2022-08-19T14:23:45;18.08;;;9.63;;
51800;SDS011;37855;53.204;6.568;2022-08-19T14:26:12;14.70;;;9.95;;
51800;SDS011;37855;53.204;6.568;2022-08-19T14:28:40;11.52;;;7.45;;
51800;SDS011;37855;53.204;6.568;2022-08-19T14:31:07;13.77;;;9.45;;
51800;SDS011;37855;53.204;6.568;2022-08-19T14:33:34;18.50;;;10.13;;
51800;SDS011;37855;53.204;6.568;2022-08-19T14:35:59;14.45;;;10.18;;
51800;SDS011;37855;53.204;6.568;2022-08-19T14:38:25;18.95;;;9.75;;
51800;SDS011;37855;53.204;6.568;2022-08-19T14:40:51;16.52;;;9.98;;
51800;SDS011;37855;53.204;6.568;2022-08-19T14:43:17;18.80;;;9.75;;
51800;SDS011;37855;53.204;6.568;2022-08-19T14:45:43;18.83;;;10.60;;
51800;SDS011;37855;53.204;6.568;2022-08-19T14:48:09;16.65;;;10.55;;
51800;SDS011;37855;53.204;6.568;2022-08-19T14:50:35;13.85;;;9.60;;
51800;SDS011;37855;53.204;6.568;2022-08-19T14:53:08;16.88;;;10.82;;
51800;SDS011;37855;53.204;6.568;2022-08-19T14:55:40;19.98;;;10.23;;
51800;SDS011;37855;53.204;6.568;2022-08-19T14:58:07;20.15;;;12.75;;
51800;SDS011;37855;53.204;6.568;2022-08-19T15:00:33;15.00;;;11.18;;